ブラジリア の空港の天気 - METARとTAF

ブラジリア国際空港 ( SBBR / BSB ) - ブラジル ブラジリア
飛行場実況気象(Metar)
観測時間07/16 03:00 BRT (07/16 06:00 UTC)
風向・風速静穏 0m/s
視程10km以上
天気現象
なし
気温12℃
湿度82%
気圧1023hPa
METARSBBR 160600Z 00000KT CAVOK 12/09 Q1023
過去の天気等 Google飛行場航空写真 Wunderground天気予報

過去48時間のMETAR

飛行場予報(TAF)
発表時間: 7/15 23:00 BRT (7/16 02:00 UTC)
予報対象時間: 16日3時 BRT ~ 17日3時 BRT
風向・風速東 3m/s
視程10km以上
なし
16日9時 BRT ~ 16日11時 BRT に徐々に
風向・風速東 4m/s
16日15時 BRT ~ 16日17時 BRT に徐々に
風向・風速東南東 4m/s
視程7000m
少しの雲 雲底高度 1220m
16日21時 BRT ~ 16日23時 BRT に徐々に
風向・風速南 3m/s
視程10km以上
なし
TAF SBBR 160200Z 1606/1706 08005KT CAVOK TN11/1608Z TX26/1618Z
BECMG 1612/1614 08008KT
BECMG 1618/1620 11007KT 7000 FEW040
BECMG 1700/1702 18005KT CAVOK RMK PDE